sensor_id;sensor_type;location;lat;lon;timestamp;pressure;altitude;pressure_sealevel;temperature;humidity
6224;BME280;3145;42.726;23.342;2023-09-19T00:02:21;72311.09;;;-142.70;71.06
6224;BME280;3145;42.726;23.342;2023-09-19T00:04:48;72315.13;;;-142.70;71.26
6224;BME280;3145;42.726;23.342;2023-09-19T00:07:15;72317.16;;;-142.70;71.39
6224;BME280;3145;42.726;23.342;2023-09-19T00:09:42;72315.13;;;-142.70;71.51
6224;BME280;3145;42.726;23.342;2023-09-19T00:12:09;72319.16;;;-142.70;71.69
6224;BME280;3145;42.726;23.342;2023-09-19T00:14:38;72323.19;;;-142.70;72.06
6224;BME280;3145;42.726;23.342;2023-09-19T00:17:05;72329.22;;;-142.70;72.20
6224;BME280;3145;42.726;23.342;2023-09-19T00:19:34;72321.19;;;-142.70;72.26
6224;BME280;3145;42.726;23.342;2023-09-19T00:22:02;72323.19;;;-142.70;72.31
6224;BME280;3145;42.726;23.342;2023-09-19T00:24:29;72317.16;;;-142.70;72.19
6224;BME280;3145;42.726;23.342;2023-09-19T00:26:56;72311.09;;;-142.70;72.33
6224;BME280;3145;42.726;23.342;2023-09-19T00:29:25;72321.19;;;-142.70;72.44
6224;BME280;3145;42.726;23.342;2023-09-19T00:31:55;72321.19;;;-142.70;72.55
6224;BME280;3145;42.726;23.342;2023-09-19T00:34:22;72323.19;;;-142.70;72.71
6224;BME280;3145;42.726;23.342;2023-09-19T00:36:51;72327.22;;;-142.70;72.97
6224;BME280;3145;42.726;23.342;2023-09-19T00:39:19;72327.22;;;-142.70;73.04
6224;BME280;3145;42.726;23.342;2023-09-19T00:41:47;72339.31;;;-142.70;73.36
6224;BME280;3145;42.726;23.342;2023-09-19T00:44:14;72335.28;;;-142.70;73.79
6224;BME280;3145;42.726;23.342;2023-09-19T00:46:41;72339.31;;;-142.70;73.97
6224;BME280;3145;42.726;23.342;2023-09-19T00:49:09;72335.28;;;-142.70;74.17
6224;BME280;3145;42.726;23.342;2023-09-19T00:51:36;72339.31;;;-142.70;74.19
6224;BME280;3145;42.726;23.342;2023-09-19T00:54:05;72339.31;;;-142.70;74.08
6224;BME280;3145;42.726;23.342;2023-09-19T00:56:31;72335.28;;;-142.70;73.94
6224;BME280;3145;42.726;23.342;2023-09-19T00:58:58;72331.25;;;-142.70;73.87
6224;BME280;3145;42.726;23.342;2023-09-19T01:01:25;72327.22;;;-142.70;73.92
6224;BME280;3145;42.726;23.342;2023-09-19T01:03:52;72327.22;;;-142.70;73.88
6224;BME280;3145;42.726;23.342;2023-09-19T01:06:19;72343.34;;;-142.70;74.03
6224;BME280;3145;42.726;23.342;2023-09-19T01:08:46;72343.34;;;-142.70;74.25
6224;BME280;3145;42.726;23.342;2023-09-19T01:11:20;72343.34;;;-142.70;74.19
6224;BME280;3145;42.726;23.342;2023-09-19T01:13:56;72343.34;;;-142.70;74.33
6224;BME280;3145;42.726;23.342;2023-09-19T01:16:32;72343.34;;;-142.70;74.44
6224;BME280;3145;42.726;23.342;2023-09-19T01:19:27;72351.41;;;-142.70;74.50
6224;BME280;3145;42.726;23.342;2023-09-19T01:22:10;72357.44;;;-142.70;74.64
6224;BME280;3145;42.726;23.342;2023-09-19T01:25:00;72355.41;;;-142.70;74.63
6224;BME280;3145;42.726;23.342;2023-09-19T01:28:01;72351.41;;;-142.70;74.66
6224;BME280;3145;42.726;23.342;2023-09-19T01:30:36;72357.44;;;-142.70;74.59
6224;BME280;3145;42.726;23.342;2023-09-19T01:33:06;72355.41;;;-142.70;74.74
6224;BME280;3145;42.726;23.342;2023-09-19T01:35:34;72353.41;;;-142.70;74.55
6224;BME280;3145;42.726;23.342;2023-09-19T01:38:04;72359.44;;;-142.70;74.79
6224;BME280;3145;42.726;23.342;2023-09-19T01:40:34;72363.47;;;-142.70;75.01
6224;BME280;3145;42.726;23.342;2023-09-19T01:43:09;72371.53;;;-142.70;75.46
6224;BME280;3145;42.726;23.342;2023-09-19T01:45:48;72367.50;;;-142.70;75.38
6224;BME280;3145;42.726;23.342;2023-09-19T01:48:23;72371.53;;;-142.70;75.32
6224;BME280;3145;42.726;23.342;2023-09-19T01:50:55;72371.53;;;-142.70;75.43
6224;BME280;3145;42.726;23.342;2023-09-19T01:53:28;72367.50;;;-142.70;75.59
6224;BME280;3145;42.726;23.342;2023-09-19T01:55:57;72371.53;;;-142.70;75.44
6224;BME280;3145;42.726;23.342;2023-09-19T01:58:30;72367.50;;;-142.70;75.46
6224;BME280;3145;42.726;23.342;2023-09-19T02:01:01;72371.53;;;-142.70;75.37
6224;BME280;3145;42.726;23.342;2023-09-19T02:03:31;72379.59;;;-142.70;75.23
6224;BME280;3145;42.726;23.342;2023-09-19T02:06:00;72379.59;;;-142.70;75.24
6224;BME280;3145;42.726;23.342;2023-09-19T02:08:28;72375.56;;;-142.70;75.44
6224;BME280;3145;42.726;23.342;2023-09-19T02:10:56;72387.66;;;-142.70;75.63
6224;BME280;3145;42.726;23.342;2023-09-19T02:13:23;72393.69;;;-142.70;75.89
6224;BME280;3145;42.726;23.342;2023-09-19T02:15:52;72399.75;;;-142.70;76.27
6224;BME280;3145;42.726;23.342;2023-09-19T02:18:20;72407.81;;;-142.70;76.64
6224;BME280;3145;42.726;23.342;2023-09-19T02:20:47;72411.81;;;-142.70;76.82
6224;BME280;3145;42.726;23.342;2023-09-19T02:23:14;72417.88;;;-142.70;76.97
6224;BME280;3145;42.726;23.342;2023-09-19T02:25:42;72415.84;;;-142.70;77.02
6224;BME280;3145;42.726;23.342;2023-09-19T02:28:09;72415.84;;;-142.70;77.22
6224;BME280;3145;42.726;23.342;2023-09-19T02:30:35;72409.81;;;-142.70;77.40
6224;BME280;3145;42.726;23.342;2023-09-19T02:33:03;72415.84;;;-142.70;77.49
6224;BME280;3145;42.726;23.342;2023-09-19T02:35:31;72415.84;;;-142.70;77.69
6224;BME280;3145;42.726;23.342;2023-09-19T02:38:00;72419.88;;;-142.70;77.83
6224;BME280;3145;42.726;23.342;2023-09-19T02:40:27;72415.84;;;-142.70;77.63
6224;BME280;3145;42.726;23.342;2023-09-19T02:42:55;72411.81;;;-142.70;77.78
6224;BME280;3145;42.726;23.342;2023-09-19T02:45:24;72417.88;;;-142.70;78.10
6224;BME280;3145;42.726;23.342;2023-09-19T02:47:51;72421.91;;;-142.70;78.14
6224;BME280;3145;42.726;23.342;2023-09-19T02:50:18;72419.88;;;-142.70;78.00
6224;BME280;3145;42.726;23.342;2023-09-19T02:52:47;72417.88;;;-142.70;78.01
6224;BME280;3145;42.726;23.342;2023-09-19T02:55:14;72425.94;;;-142.70;78.25
6224;BME280;3145;42.726;23.342;2023-09-19T02:57:45;72436.00;;;-142.70;78.41
6224;BME280;3145;42.726;23.342;2023-09-19T03:00:13;72429.97;;;-142.70;78.51
6224;BME280;3145;42.726;23.342;2023-09-19T03:02:40;72423.91;;;-142.70;78.53
6224;BME280;3145;42.726;23.342;2023-09-19T03:05:07;72415.84;;;-142.70;78.44
6224;BME280;3145;42.726;23.342;2023-09-19T03:07:36;72417.88;;;-142.70;78.48
6224;BME280;3145;42.726;23.342;2023-09-19T03:10:06;72417.88;;;-142.70;78.23
6224;BME280;3145;42.726;23.342;2023-09-19T03:12:33;72423.91;;;-142.70;78.53
6224;BME280;3145;42.726;23.342;2023-09-19T03:15:00;72419.88;;;-142.70;78.49
6224;BME280;3145;42.726;23.342;2023-09-19T03:17:26;72419.88;;;-142.70;78.43
6224;BME280;3145;42.726;23.342;2023-09-19T03:19:53;72411.81;;;-142.70;78.50
6224;BME280;3145;42.726;23.342;2023-09-19T03:22:20;72409.81;;;-142.70;78.53
6224;BME280;3145;42.726;23.342;2023-09-19T03:24:47;72415.84;;;-142.70;79.02
6224;BME280;3145;42.726;23.342;2023-09-19T03:27:15;72415.84;;;-142.70;79.00
6224;BME280;3145;42.726;23.342;2023-09-19T03:29:42;72419.88;;;-142.70;79.01
6224;BME280;3145;42.726;23.342;2023-09-19T03:32:09;72415.84;;;-142.70;79.02
6224;BME280;3145;42.726;23.342;2023-09-19T03:34:36;72415.84;;;-142.70;78.64
6224;BME280;3145;42.726;23.342;2023-09-19T03:37:05;72415.84;;;-142.70;78.83
6224;BME280;3145;42.726;23.342;2023-09-19T03:39:32;72419.88;;;-142.70;78.56
6224;BME280;3145;42.726;23.342;2023-09-19T03:41:59;72415.84;;;-142.70;78.63
6224;BME280;3145;42.726;23.342;2023-09-19T03:44:27;72409.81;;;-142.70;78.99
6224;BME280;3145;42.726;23.342;2023-09-19T03:46:54;72403.78;;;-142.70;78.23
6224;BME280;3145;42.726;23.342;2023-09-19T03:49:21;72399.75;;;-142.70;78.21
6224;BME280;3145;42.726;23.342;2023-09-19T03:51:48;72401.75;;;-142.70;77.73
6224;BME280;3145;42.726;23.342;2023-09-19T03:54:15;72405.78;;;-142.70;77.55
6224;BME280;3145;42.726;23.342;2023-09-19T03:56:42;72407.81;;;-142.70;77.35
6224;BME280;3145;42.726;23.342;2023-09-19T03:59:09;72395.72;;;-142.70;77.06
6224;BME280;3145;42.726;23.342;2023-09-19T04:01:37;72395.72;;;-142.70;76.84
6224;BME280;3145;42.726;23.342;2023-09-19T04:04:06;72393.69;;;-142.70;76.66
6224;BME280;3145;42.726;23.342;2023-09-19T04:06:34;72387.66;;;-142.70;76.45
6224;BME280;3145;42.726;23.342;2023-09-19T04:09:01;72383.63;;;-142.70;76.09
6224;BME280;3145;42.726;23.342;2023-09-19T04:11:29;72395.72;;;-142.70;76.37
6224;BME280;3145;42.726;23.342;2023-09-19T04:13:56;72399.75;;;-142.70;76.54
6224;BME280;3145;42.726;23.342;2023-09-19T04:16:23;72403.78;;;-142.70;76.40
6224;BME280;3145;42.726;23.342;2023-09-19T04:18:51;72393.69;;;-142.70;76.57
6224;BME280;3145;42.726;23.342;2023-09-19T04:21:18;72371.53;;;-142.70;76.72
6224;BME280;3145;42.726;23.342;2023-09-19T04:23:45;72343.34;;;-142.70;76.29
6224;BME280;3145;42.726;23.342;2023-09-19T04:26:11;72311.09;;;-142.70;75.90
6224;BME280;3145;42.726;23.342;2023-09-19T04:28:38;72290.97;;;-142.70;74.84
6224;BME280;3145;42.726;23.342;2023-09-19T04:31:06;72266.78;;;-142.70;73.63
6224;BME280;3145;42.726;23.342;2023-09-19T04:33:34;72254.72;;;-142.70;72.38
6224;BME280;3145;42.726;23.342;2023-09-19T04:36:02;72230.53;;;-142.70;71.92
6224;BME280;3145;42.726;23.342;2023-09-19T04:38:30;72210.38;;;-142.70;71.42
6224;BME280;3145;42.726;23.342;2023-09-19T04:40:57;72188.22;;;-142.70;70.53
6224;BME280;3145;42.726;23.342;2023-09-19T04:43:25;72166.06;;;-142.70;70.20
6224;BME280;3145;42.726;23.342;2023-09-19T04:45:52;72141.91;;;-142.70;69.34
6224;BME280;3145;42.726;23.342;2023-09-19T04:48:21;72160.03;;;-142.70;68.66
6224;BME280;3145;42.726;23.342;2023-09-19T04:50:50;72182.19;;;-142.70;68.90
6224;BME280;3145;42.726;23.342;2023-09-19T04:53:18;72188.22;;;-142.70;69.08
6224;BME280;3145;42.726;23.342;2023-09-19T04:55:49;72194.28;;;-142.70;69.50
6224;BME280;3145;42.726;23.342;2023-09-19T04:58:16;72218.44;;;-142.70;70.40
6224;BME280;3145;42.726;23.342;2023-09-19T05:00:43;72210.38;;;-142.70;70.53
6224;BME280;3145;42.726;23.342;2023-09-19T05:03:10;72194.28;;;-142.70;69.82
6224;BME280;3145;42.726;23.342;2023-09-19T05:05:36;72170.09;;;-142.70;69.45
6224;BME280;3145;42.726;23.342;2023-09-19T05:08:04;72168.09;;;-142.70;68.68
6224;BME280;3145;42.726;23.342;2023-09-19T05:10:33;72127.81;;;-142.70;68.34
6224;BME280;3145;42.726;23.342;2023-09-19T05:13:00;72101.63;;;-142.70;67.76
6224;BME280;3145;42.726;23.342;2023-09-19T05:15:27;72077.44;;;-142.70;67.06
6224;BME280;3145;42.726;23.342;2023-09-19T05:17:54;72043.19;;;-142.70;66.10
6224;BME280;3145;42.726;23.342;2023-09-19T05:20:21;72013.00;;;-142.70;65.13
6224;BME280;3145;42.726;23.342;2023-09-19T05:23:00;72033.13;;;-142.70;65.42
6224;BME280;3145;42.726;23.342;2023-09-19T05:25:28;72037.16;;;-142.70;65.54
6224;BME280;3145;42.726;23.342;2023-09-19T05:27:58;72045.22;;;-142.70;65.49
6224;BME280;3145;42.726;23.342;2023-09-19T05:30:26;72029.09;;;-142.70;65.54
6224;BME280;3145;42.726;23.342;2023-09-19T05:32:54;72021.06;;;-142.70;64.55
6224;BME280;3145;42.726;23.342;2023-09-19T05:35:22;72025.06;;;-142.70;64.69
6224;BME280;3145;42.726;23.342;2023-09-19T05:37:51;72057.31;;;-142.70;65.39
6224;BME280;3145;42.726;23.342;2023-09-19T05:40:17;72081.47;;;-142.70;65.89
6224;BME280;3145;42.726;23.342;2023-09-19T05:42:44;72077.44;;;-142.70;66.51
6224;BME280;3145;42.726;23.342;2023-09-19T05:45:13;72077.44;;;-142.70;66.56
6224;BME280;3145;42.726;23.342;2023-09-19T05:47:44;72061.34;;;-142.70;66.70
6224;BME280;3145;42.726;23.342;2023-09-19T05:50:12;72027.09;;;-142.70;65.69
6224;BME280;3145;42.726;23.342;2023-09-19T05:52:40;72010.97;;;-142.70;64.99
6224;BME280;3145;42.726;23.342;2023-09-19T05:55:08;71972.72;;;-142.70;64.19
6224;BME280;3145;42.726;23.342;2023-09-19T05:57:36;71928.41;;;-142.70;62.72
6224;BME280;3145;42.726;23.342;2023-09-19T06:00:05;71890.13;;;-142.70;61.39
6224;BME280;3145;42.726;23.342;2023-09-19T06:02:35;71934.44;;;-142.70;62.10
6224;BME280;3145;42.726;23.342;2023-09-19T06:05:03;71906.25;;;-142.70;61.24
6224;BME280;3145;42.726;23.342;2023-09-19T06:07:31;71920.34;;;-142.70;61.10
6224;BME280;3145;42.726;23.342;2023-09-19T06:10:02;71960.63;;;-142.70;61.84
6224;BME280;3145;42.726;23.342;2023-09-19T06:12:31;71940.47;;;-142.70;61.82
6224;BME280;3145;42.726;23.342;2023-09-19T06:14:58;71928.41;;;-142.70;61.63
6224;BME280;3145;42.726;23.342;2023-09-19T06:17:25;71920.34;;;-142.70;60.99
6224;BME280;3145;42.726;23.342;2023-09-19T06:19:54;71944.50;;;-142.70;61.02
6224;BME280;3145;42.726;23.342;2023-09-19T06:22:22;71944.50;;;-142.70;61.89
6224;BME280;3145;42.726;23.342;2023-09-19T06:24:49;71952.56;;;-142.70;62.11
6224;BME280;3145;42.726;23.342;2023-09-19T06:27:16;71940.47;;;-142.70;61.93
6224;BME280;3145;42.726;23.342;2023-09-19T06:29:42;71928.41;;;-142.70;61.10
6224;BME280;3145;42.726;23.342;2023-09-19T06:32:09;71926.38;;;-142.70;61.01
6224;BME280;3145;42.726;23.342;2023-09-19T06:34:36;71922.34;;;-142.70;61.06
6224;BME280;3145;42.726;23.342;2023-09-19T06:37:05;71928.41;;;-142.70;61.51
6224;BME280;3145;42.726;23.342;2023-09-19T06:39:32;71874.00;;;-142.70;60.23
6224;BME280;3145;42.726;23.342;2023-09-19T06:41:59;71803.53;;;-142.70;58.78
6224;BME280;3145;42.726;23.342;2023-09-19T06:44:27;71731.00;;;-142.70;56.38
6224;BME280;3145;42.726;23.342;2023-09-19T06:46:55;71735.03;;;-142.70;55.78
6224;BME280;3145;42.726;23.342;2023-09-19T06:49:21;71757.19;;;-142.70;55.72
6224;BME280;3145;42.726;23.342;2023-09-19T06:51:48;71763.25;;;-142.70;56.25
6224;BME280;3145;42.726;23.342;2023-09-19T06:54:16;71739.06;;;-142.70;55.26
6224;BME280;3145;42.726;23.342;2023-09-19T06:56:43;71755.19;;;-142.70;55.31
6224;BME280;3145;42.726;23.342;2023-09-19T06:59:10;71789.41;;;-142.70;55.34
6224;BME280;3145;42.726;23.342;2023-09-19T07:01:39;71787.41;;;-142.70;54.99
6224;BME280;3145;42.726;23.342;2023-09-19T07:04:06;71767.28;;;-142.70;55.37
6224;BME280;3145;42.726;23.342;2023-09-19T07:06:33;71789.41;;;-142.70;54.39
6224;BME280;3145;42.726;23.342;2023-09-19T07:09:01;71815.59;;;-142.70;55.52
6224;BME280;3145;42.726;23.342;2023-09-19T07:11:29;71809.56;;;-142.70;56.28
6224;BME280;3145;42.726;23.342;2023-09-19T07:13:57;71795.47;;;-142.70;55.77
6224;BME280;3145;42.726;23.342;2023-09-19T07:16:24;71809.56;;;-142.70;55.55
6224;BME280;3145;42.726;23.342;2023-09-19T07:18:54;71815.59;;;-142.70;55.80
6224;BME280;3145;42.726;23.342;2023-09-19T07:21:21;71791.44;;;-142.70;55.30
6224;BME280;3145;42.726;23.342;2023-09-19T07:23:48;71779.34;;;-142.70;55.21
6224;BME280;3145;42.726;23.342;2023-09-19T07:26:15;71787.41;;;-142.70;55.27
6224;BME280;3145;42.726;23.342;2023-09-19T07:28:43;71777.34;;;-142.70;54.46
6224;BME280;3145;42.726;23.342;2023-09-19T07:31:10;71785.41;;;-142.70;54.34
6224;BME280;3145;42.726;23.342;2023-09-19T07:33:38;71775.31;;;-142.70;54.34
6224;BME280;3145;42.726;23.342;2023-09-19T07:36:05;71751.16;;;-142.70;53.80
6224;BME280;3145;42.726;23.342;2023-09-19T07:38:32;71724.97;;;-142.70;52.19
6224;BME280;3145;42.726;23.342;2023-09-19T07:41:01;71710.88;;;-142.70;52.82
6224;BME280;3145;42.726;23.342;2023-09-19T07:43:29;71686.72;;;-142.70;52.68
6224;BME280;3145;42.726;23.342;2023-09-19T07:45:57;71682.69;;;-142.70;51.05
6224;BME280;3145;42.726;23.342;2023-09-19T07:48:26;71708.88;;;-142.70;51.66
6224;BME280;3145;42.726;23.342;2023-09-19T07:50:52;71690.72;;;-142.70;51.36
6224;BME280;3145;42.726;23.342;2023-09-19T07:53:20;71662.53;;;-142.70;51.08
6224;BME280;3145;42.726;23.342;2023-09-19T07:55:47;71672.59;;;-142.70;49.90
6224;BME280;3145;42.726;23.342;2023-09-19T07:58:14;71658.50;;;-142.70;49.82
6224;BME280;3145;42.726;23.342;2023-09-19T08:00:41;71666.56;;;-142.70;50.32
6224;BME280;3145;42.726;23.342;2023-09-19T08:03:09;71654.47;;;-142.70;49.42
6224;BME280;3145;42.726;23.342;2023-09-19T08:05:40;71632.31;;;-142.70;49.89
6224;BME280;3145;42.726;23.342;2023-09-19T08:08:08;71596.06;;;-142.70;49.05
6224;BME280;3145;42.726;23.342;2023-09-19T08:10:36;71537.66;;;-142.70;49.00
6224;BME280;3145;42.726;23.342;2023-09-19T08:13:05;71521.56;;;-142.70;46.41
6224;BME280;3145;42.726;23.342;2023-09-19T08:15:37;71537.66;;;-142.70;46.20
6224;BME280;3145;42.726;23.342;2023-09-19T08:18:10;71513.50;;;-142.70;47.04
6224;BME280;3145;42.726;23.342;2023-09-19T08:20:37;71535.66;;;-142.70;47.01
6224;BME280;3145;42.726;23.342;2023-09-19T08:23:05;71541.69;;;-142.70;46.51
6224;BME280;3145;42.726;23.342;2023-09-19T08:25:33;71537.66;;;-142.70;46.82
6224;BME280;3145;42.726;23.342;2023-09-19T08:28:00;71573.94;;;-142.70;47.37
6224;BME280;3145;42.726;23.342;2023-09-19T08:30:29;71545.72;;;-142.70;47.15
6224;BME280;3145;42.726;23.342;2023-09-19T08:32:57;71529.63;;;-142.70;46.95
6224;BME280;3145;42.726;23.342;2023-09-19T08:35:26;71527.59;;;-142.70;47.21
6224;BME280;3145;42.726;23.342;2023-09-19T08:37:53;71537.66;;;-142.70;46.03
6224;BME280;3145;42.726;23.342;2023-09-19T08:40:21;71537.66;;;-142.70;46.24
6224;BME280;3145;42.726;23.342;2023-09-19T08:42:48;71509.47;;;-142.70;45.45
6224;BME280;3145;42.726;23.342;2023-09-19T08:45:16;71503.44;;;-142.70;46.01
6224;BME280;3145;42.726;23.342;2023-09-19T08:47:46;71525.59;;;-142.70;46.24
6224;BME280;3145;42.726;23.342;2023-09-19T08:50:19;71513.50;;;-142.70;46.09
6224;BME280;3145;42.726;23.342;2023-09-19T08:52:51;71499.41;;;-142.70;46.07
6224;BME280;3145;42.726;23.342;2023-09-19T08:55:23;71477.25;;;-142.70;45.41
6224;BME280;3145;42.726;23.342;2023-09-19T08:58:00;71525.59;;;-142.70;45.54
6224;BME280;3145;42.726;23.342;2023-09-19T09:00:28;71541.69;;;-142.70;46.43
6224;BME280;3145;42.726;23.342;2023-09-19T09:02:56;71529.63;;;-142.70;46.21
6224;BME280;3145;42.726;23.342;2023-09-19T09:05:23;71513.50;;;-142.70;45.78
6224;BME280;3145;42.726;23.342;2023-09-19T09:07:52;71501.44;;;-142.70;45.35
6224;BME280;3145;42.726;23.342;2023-09-19T09:10:21;71469.19;;;-142.70;45.29
6224;BME280;3145;42.726;23.342;2023-09-19T09:12:49;71445.03;;;-142.70;45.05
6224;BME280;3145;42.726;23.342;2023-09-19T09:15:19;71398.72;;;-142.70;44.69
6224;BME280;3145;42.726;23.342;2023-09-19T09:17:47;71416.84;;;-142.70;44.87
6224;BME280;3145;42.726;23.342;2023-09-19T09:20:15;71402.75;;;-142.70;43.89
6224;BME280;3145;42.726;23.342;2023-09-19T09:22:52;71390.66;;;-142.70;43.74
6224;BME280;3145;42.726;23.342;2023-09-19T09:25:20;71378.56;;;-142.70;44.29
6224;BME280;3145;42.726;23.342;2023-09-19T09:27:58;71344.34;;;-142.70;43.44
6224;BME280;3145;42.726;23.342;2023-09-19T09:30:33;71354.41;;;-142.70;42.35
6224;BME280;3145;42.726;23.342;2023-09-19T09:33:08;71352.41;;;-142.70;43.24
6224;BME280;3145;42.726;23.342;2023-09-19T09:35:35;71348.38;;;-142.70;42.44
6224;BME280;3145;42.726;23.342;2023-09-19T09:38:04;71318.16;;;-142.70;42.19
6224;BME280;3145;42.726;23.342;2023-09-19T09:40:45;71287.97;;;-142.70;41.88
6224;BME280;3145;42.726;23.342;2023-09-19T09:43:25;71227.53;;;-142.70;42.30
6224;BME280;3145;42.726;23.342;2023-09-19T09:46:06;71195.31;;;-142.70;41.59
6224;BME280;3145;42.726;23.342;2023-09-19T09:48:56;71191.28;;;-142.70;39.89
6224;BME280;3145;42.726;23.342;2023-09-19T09:51:41;71171.16;;;-142.70;40.89
6224;BME280;3145;42.726;23.342;2023-09-19T09:54:13;71185.25;;;-142.70;40.15
6224;BME280;3145;42.726;23.342;2023-09-19T09:56:54;71225.53;;;-142.70;40.73
6224;BME280;3145;42.726;23.342;2023-09-19T09:59:44;71247.69;;;-142.70;40.33
6224;BME280;3145;42.726;23.342;2023-09-19T10:02:13;71291.97;;;-142.70;40.98
6224;BME280;3145;42.726;23.342;2023-09-19T10:04:42;71302.06;;;-142.70;41.40
6224;BME280;3145;42.726;23.342;2023-09-19T10:07:27;71279.91;;;-142.70;41.93
6224;BME280;3145;42.726;23.342;2023-09-19T10:10:00;71243.66;;;-142.70;41.50
6224;BME280;3145;42.726;23.342;2023-09-19T10:12:44;71255.72;;;-142.70;40.72
6224;BME280;3145;42.726;23.342;2023-09-19T10:15:16;71241.63;;;-142.70;41.38
6224;BME280;3145;42.726;23.342;2023-09-19T10:17:46;71267.81;;;-142.70;41.37
6224;BME280;3145;42.726;23.342;2023-09-19T10:20:14;71255.72;;;-142.70;41.33
6224;BME280;3145;42.726;23.342;2023-09-19T10:22:59;71237.63;;;-142.70;40.89
6224;BME280;3145;42.726;23.342;2023-09-19T10:25:29;71227.53;;;-142.70;40.86
6224;BME280;3145;42.726;23.342;2023-09-19T10:27:57;71211.44;;;-142.70;40.92
6224;BME280;3145;42.726;23.342;2023-09-19T10:30:25;71199.34;;;-142.70;40.17
6224;BME280;3145;42.726;23.342;2023-09-19T10:33:00;71203.38;;;-142.70;40.64
6224;BME280;3145;42.726;23.342;2023-09-19T10:35:27;71199.34;;;-142.70;40.97
6224;BME280;3145;42.726;23.342;2023-09-19T10:37:57;71215.47;;;-142.70;40.87
6224;BME280;3145;42.726;23.342;2023-09-19T10:40:28;71221.50;;;-142.70;41.51
6224;BME280;3145;42.726;23.342;2023-09-19T10:43:02;71199.34;;;-142.70;41.20
6224;BME280;3145;42.726;23.342;2023-09-19T10:45:32;71171.16;;;-142.70;41.33
6224;BME280;3145;42.726;23.342;2023-09-19T10:47:59;71149.00;;;-142.70;40.87
6224;BME280;3145;42.726;23.342;2023-09-19T10:50:30;71163.09;;;-142.70;40.32
6224;BME280;3145;42.726;23.342;2023-09-19T10:53:00;71144.97;;;-142.70;40.07
6224;BME280;3145;42.726;23.342;2023-09-19T10:55:34;71116.78;;;-142.70;40.50
6224;BME280;3145;42.726;23.342;2023-09-19T10:58:02;71078.53;;;-142.70;39.96
6224;BME280;3145;42.726;23.342;2023-09-19T11:00:51;71062.41;;;-142.70;40.41
6224;BME280;3145;42.726;23.342;2023-09-19T11:03:22;71082.56;;;-142.70;38.85
6224;BME280;3145;42.726;23.342;2023-09-19T11:06:06;71064.44;;;-142.70;39.16
6224;BME280;3145;42.726;23.342;2023-09-19T11:08:52;71080.53;;;-142.70;39.07
6224;BME280;3145;42.726;23.342;2023-09-19T11:11:46;71074.50;;;-142.70;39.51
6224;BME280;3145;42.726;23.342;2023-09-19T11:14:41;71062.41;;;-142.70;39.43
6224;BME280;3145;42.726;23.342;2023-09-19T11:17:31;71090.63;;;-142.70;39.85
6224;BME280;3145;42.726;23.342;2023-09-19T11:23:23;71028.19;;;-142.70;39.08
6224;BME280;3145;42.726;23.342;2023-09-19T11:25:53;71014.09;;;-142.70;39.08
6224;BME280;3145;42.726;23.342;2023-09-19T11:28:34;70983.88;;;-142.70;39.21
6224;BME280;3145;42.726;23.342;2023-09-19T11:34:45;70965.75;;;-142.70;37.99
6224;BME280;3145;42.726;23.342;2023-09-19T11:40:33;70925.50;;;-142.70;38.09
6224;BME280;3145;42.726;23.342;2023-09-19T11:43:32;70941.59;;;-142.70;37.85
6224;BME280;3145;42.726;23.342;2023-09-19T11:46:06;70965.75;;;-142.70;38.15
6224;BME280;3145;42.726;23.342;2023-09-19T11:48:32;70953.69;;;-142.70;38.62
6224;BME280;3145;42.726;23.342;2023-09-19T11:51:10;70983.88;;;-142.70;38.42
6224;BME280;3145;42.726;23.342;2023-09-19T11:53:45;70993.97;;;-142.70;38.99
6224;BME280;3145;42.726;23.342;2023-09-19T11:56:15;70983.88;;;-142.70;38.55
6224;BME280;3145;42.726;23.342;2023-09-19T11:58:44;70961.75;;;-142.70;39.06
6224;BME280;3145;42.726;23.342;2023-09-19T12:01:20;70913.41;;;-142.70;39.14
6224;BME280;3145;42.726;23.342;2023-09-19T12:03:56;70848.97;;;-142.70;37.72
6224;BME280;3145;42.726;23.342;2023-09-19T12:06:24;70832.88;;;-142.70;37.25
6224;BME280;3145;42.726;23.342;2023-09-19T12:08:51;70822.81;;;-142.70;37.79
6224;BME280;3145;42.726;23.342;2023-09-19T12:11:19;70836.91;;;-142.70;37.26
6224;BME280;3145;42.726;23.342;2023-09-19T12:13:50;70867.09;;;-142.70;37.51
6224;BME280;3145;42.726;23.342;2023-09-19T12:16:19;70869.13;;;-142.70;38.09
6224;BME280;3145;42.726;23.342;2023-09-19T12:18:48;70846.97;;;-142.70;37.91
6224;BME280;3145;42.726;23.342;2023-09-19T12:21:23;70810.72;;;-142.70;37.07
6224;BME280;3145;42.726;23.342;2023-09-19T12:24:07;70776.50;;;-142.70;36.79
6224;BME280;3145;42.726;23.342;2023-09-19T12:26:42;70756.34;;;-142.70;36.65
6224;BME280;3145;42.726;23.342;2023-09-19T12:29:16;70806.69;;;-142.70;37.04
6224;BME280;3145;42.726;23.342;2023-09-19T12:31:50;70794.63;;;-142.70;37.16
6224;BME280;3145;42.726;23.342;2023-09-19T12:34:23;70814.75;;;-142.70;37.72
6224;BME280;3145;42.726;23.342;2023-09-19T12:37:07;70853.00;;;-142.70;37.70
6224;BME280;3145;42.726;23.342;2023-09-19T12:39:42;70851.00;;;-142.70;37.48
6224;BME280;3145;42.726;23.342;2023-09-19T12:42:10;70844.97;;;-142.70;37.14
6224;BME280;3145;42.726;23.342;2023-09-19T12:44:42;70840.94;;;-142.70;37.07
6224;BME280;3145;42.726;23.342;2023-09-19T12:47:11;70818.78;;;-142.70;37.14
6224;BME280;3145;42.726;23.342;2023-09-19T12:50:06;70772.47;;;-142.70;37.52
6224;BME280;3145;42.726;23.342;2023-09-19T12:52:37;70740.25;;;-142.70;36.72
6224;BME280;3145;42.726;23.342;2023-09-19T12:55:04;70712.06;;;-142.70;36.22
6224;BME280;3145;42.726;23.342;2023-09-19T12:57:32;70732.19;;;-142.70;36.16
6224;BME280;3145;42.726;23.342;2023-09-19T13:00:01;70728.16;;;-142.70;36.08
6224;BME280;3145;42.726;23.342;2023-09-19T13:02:31;70734.22;;;-142.70;36.75
6224;BME280;3145;42.726;23.342;2023-09-19T13:04:58;70712.06;;;-142.70;36.45
6224;BME280;3145;42.726;23.342;2023-09-19T13:07:42;70691.94;;;-142.70;36.90
6224;BME280;3145;42.726;23.342;2023-09-19T13:10:11;70706.03;;;-142.70;36.46
6224;BME280;3145;42.726;23.342;2023-09-19T13:12:41;70738.25;;;-142.70;36.92
6224;BME280;3145;42.726;23.342;2023-09-19T13:15:12;70772.47;;;-142.70;36.52
6224;BME280;3145;42.726;23.342;2023-09-19T13:17:46;70788.56;;;-142.70;36.90